Terminal Aerodrome Forecast
Issued by NWS Bismarck, ND

Home | Current Version | Previous Version | Text Only | Print | Product List | Glossary Off
Versions: 1 2 3 4 5 6 7 8 9 10 11 12 13 14 15

000
FTUS43 KBIS 171726
TAFISN
TAF
KISN 171726Z 1718/1818 20007KT P6SM SKC
     FM171900 24011G22KT P6SM SKC
     FM180000 22007KT P6SM FEW250 WS020/24030KT
     FM180400 25010KT P6SM SCT250 WS020/27045KT
     FM180700 28021G32KT P6SM FEW250 WS020/28045KT
     FM181700 28018G26KT P6SM FEW250=

USA.gov is the U.S. government's official web portal to all federal, state and local government web resources and services.